PWSweather.com
Personal Weather Stations
Station Observations
CANDIOTINO
Barrio Candioti Norte, Santa FeAR 3000

Barrio Candioti NorteSanta FeAR 3000

Lat: -31.632778, Lon: -60.695556

Elevation: 69

Station Type: WH-1081

http://www.eltiempoensantafe.com.ar

High Low Average
Temperature 98.8°F37.1°C 72.5°F22.5°C 84.1°F28.9°C
Dew Point 70.4°F21.3°C 62.3°F16.8°C 66.2°F19.0°C
Winds 5.4 mph 8.7 kmh Calm Calm 2.0 mph ESE3.2 kmh ESE
Wind Gusts 8.3 mph13.4 kmh 1.6 mph2.6 kmh 5.0 mph8.0 kmh
Humidity 78% 32% 57%
Pressure 29.83 in1010.2 mb 29.68 in1005.1 mb -
Precipitation 0.00 in0.0 mm - -
Hour Temp Dew Point Humidity Winds Wind Gusts Pressure Precip Precip Rate Daily Precip Total
12:00 AM 77.5°F25.3°C 63.1°F17.3°C 61% 2.2 mph E3.5 kmh E 5.4 mph8.7 kmh 29.79 in1008.8 mb 0.00 in0.0 mm 0.00 in0.0 mm 0.00 in0.0 mm
12:15 AM 77.4°F25.2°C 62.4°F16.9°C 60% 1.6 mph N2.6 kmh N 6.0 mph9.7 kmh 29.79 in1008.8 mb 0.00 in0.0 mm 0.00 in0.0 mm 0.00 in0.0 mm
12:30 AM 77.2°F25.1°C 62.3°F16.8°C 60% 3.8 mph ESE6.1 kmh ESE 5.4 mph8.7 kmh 29.79 in1008.8 mb 0.00 in0.0 mm 0.00 in0.0 mm 0.00 in0.0 mm
12:45 AM 77.0°F25.0°C 63.0°F17.2°C 62% 3.1 mph ESE5.0 kmh ESE 7.6 mph12.2 kmh 29.79 in1008.8 mb 0.00 in0.0 mm 0.00 in0.0 mm 0.00 in0.0 mm
01:00 AM 76.6°F24.8°C 63.6°F17.6°C 64% 0.7 mph E1.1 kmh E 6.9 mph11.1 kmh 29.80 in1009.1 mb 0.00 in0.0 mm 0.00 in0.0 mm 0.00 in0.0 mm
01:15 AM 76.3°F24.6°C 63.2°F17.3°C 64% 2.2 mph E3.5 kmh E 5.4 mph8.7 kmh 29.80 in1009.1 mb 0.00 in0.0 mm 0.00 in0.0 mm 0.00 in0.0 mm
01:30 AM 76.3°F24.6°C 63.2°F17.3°C 64% 1.6 mph E2.6 kmh E 4.5 mph7.2 kmh 29.80 in1009.1 mb 0.00 in0.0 mm 0.00 in0.0 mm 0.00 in0.0 mm
01:45 AM 76.3°F24.6°C 63.2°F17.3°C 64% 2.2 mph NNE3.5 kmh NNE 4.5 mph7.2 kmh 29.80 in1009.1 mb 0.00 in0.0 mm 0.00 in0.0 mm 0.00 in0.0 mm
02:00 AM 76.1°F24.5°C 63.1°F17.3°C 64% 0.7 mph NE1.1 kmh NE 3.8 mph6.1 kmh 29.80 in1009.1 mb 0.00 in0.0 mm 0.00 in0.0 mm 0.00 in0.0 mm
02:15 AM 75.9°F24.4°C 63.8°F17.7°C 66% 1.6 mph N2.6 kmh N 3.8 mph6.1 kmh 29.80 in1009.1 mb 0.00 in0.0 mm 0.00 in0.0 mm 0.00 in0.0 mm
02:30 AM 75.4°F24.1°C 64.5°F18.1°C 69% 0.7 mph N1.1 kmh N 3.8 mph6.1 kmh 29.80 in1009.1 mb 0.00 in0.0 mm 0.00 in0.0 mm 0.00 in0.0 mm
02:45 AM 75.0°F23.9°C 65.4°F18.6°C 72% 1.6 mph N2.6 kmh N 3.1 mph5.0 kmh 29.80 in1009.1 mb 0.00 in0.0 mm 0.00 in0.0 mm 0.00 in0.0 mm
03:00 AM 74.8°F23.8°C 65.2°F18.4°C 72% 0.7 mph N1.1 kmh N 3.1 mph5.0 kmh 29.80 in1009.1 mb 0.00 in0.0 mm 0.00 in0.0 mm 0.00 in0.0 mm
03:15 AM 74.5°F23.6°C 64.9°F18.3°C 72% 0.7 mph N1.1 kmh N 3.1 mph5.0 kmh 29.79 in1008.8 mb 0.00 in0.0 mm 0.00 in0.0 mm 0.00 in0.0 mm
03:30 AM 74.5°F23.6°C 65.3°F18.5°C 73% 1.6 mph NNE2.6 kmh NNE 3.1 mph5.0 kmh 29.79 in1008.8 mb 0.00 in0.0 mm 0.00 in0.0 mm 0.00 in0.0 mm
03:45 AM 74.1°F23.4°C 65.3°F18.5°C 74% 0.7 mph NE1.1 kmh NE 2.2 mph3.5 kmh 29.79 in1008.8 mb 0.00 in0.0 mm 0.00 in0.0 mm 0.00 in0.0 mm
04:00 AM 74.1°F23.4°C 66.1°F18.9°C 76% 1.6 mph N2.6 kmh N 3.1 mph5.0 kmh 29.79 in1008.8 mb 0.00 in0.0 mm 0.00 in0.0 mm 0.00 in0.0 mm
04:15 AM 73.9°F23.3°C 66.3°F19.1°C 77% 0.7 mph N1.1 kmh N 2.2 mph3.5 kmh 29.79 in1008.8 mb 0.00 in0.0 mm 0.00 in0.0 mm 0.00 in0.0 mm
04:30 AM 73.9°F23.3°C 66.7°F19.3°C 78% 0.7 mph N1.1 kmh N 3.1 mph5.0 kmh 29.79 in1008.8 mb 0.00 in0.0 mm 0.00 in0.0 mm 0.00 in0.0 mm
04:45 AM 73.6°F23.1°C 66.3°F19.1°C 78% 0.7 mph N1.1 kmh N 2.2 mph3.5 kmh 29.78 in1008.5 mb 0.00 in0.0 mm 0.00 in0.0 mm 0.00 in0.0 mm
05:00 AM 73.4°F23.0°C 66.2°F19.0°C 78% Calm Calm 1.6 mph2.6 kmh 29.78 in1008.5 mb 0.00 in0.0 mm 0.00 in0.0 mm 0.00 in0.0 mm
05:15 AM 73.4°F23.0°C 66.2°F19.0°C 78% 0.7 mph N1.1 kmh N 3.1 mph5.0 kmh 29.78 in1008.5 mb 0.00 in0.0 mm 0.00 in0.0 mm 0.00 in0.0 mm
05:30 AM 73.2°F22.9°C 66.0°F18.9°C 78% 0.7 mph N1.1 kmh N 3.1 mph5.0 kmh 29.78 in1008.5 mb 0.00 in0.0 mm 0.00 in0.0 mm 0.00 in0.0 mm
05:45 AM 73.0°F22.8°C 65.8°F18.8°C 78% 2.2 mph N3.5 kmh N 3.1 mph5.0 kmh 29.78 in1008.5 mb 0.00 in0.0 mm 0.00 in0.0 mm 0.00 in0.0 mm
06:00 AM 72.7°F22.6°C 65.5°F18.6°C 78% 1.6 mph NNW2.6 kmh NNW 2.2 mph3.5 kmh 29.78 in1008.5 mb 0.00 in0.0 mm 0.00 in0.0 mm 0.00 in0.0 mm
06:15 AM 73.2°F22.9°C 65.6°F18.7°C 77% 2.2 mph N3.5 kmh N 4.5 mph7.2 kmh 29.78 in1008.5 mb 0.00 in0.0 mm 0.00 in0.0 mm 0.00 in0.0 mm
06:30 AM 73.0°F22.8°C 65.4°F18.6°C 77% 0.7 mph N1.1 kmh N 3.8 mph6.1 kmh 29.78 in1008.5 mb 0.00 in0.0 mm 0.00 in0.0 mm 0.00 in0.0 mm
06:45 AM 72.9°F22.7°C 65.6°F18.7°C 78% 1.6 mph N2.6 kmh N 3.1 mph5.0 kmh 29.79 in1008.8 mb 0.00 in0.0 mm 0.00 in0.0 mm 0.00 in0.0 mm
07:00 AM 72.9°F22.7°C 65.6°F18.7°C 78% 3.8 mph N6.1 kmh N 5.4 mph8.7 kmh 29.79 in1008.8 mb 0.00 in0.0 mm 0.00 in0.0 mm 0.00 in0.0 mm
07:15 AM 72.5°F22.5°C 65.3°F18.5°C 78% 1.6 mph N2.6 kmh N 3.1 mph5.0 kmh 29.80 in1009.1 mb 0.00 in0.0 mm 0.00 in0.0 mm 0.00 in0.0 mm
07:30 AM 72.5°F22.5°C 65.3°F18.5°C 78% Calm Calm 2.2 mph3.5 kmh 29.80 in1009.1 mb 0.00 in0.0 mm 0.00 in0.0 mm 0.00 in0.0 mm
07:45 AM 72.9°F22.7°C 65.6°F18.7°C 78% 0.7 mph E1.1 kmh E 3.1 mph5.0 kmh 29.80 in1009.1 mb 0.00 in0.0 mm 0.00 in0.0 mm 0.00 in0.0 mm
08:00 AM 76.8°F24.9°C 68.3°F20.2°C 75% Calm Calm 2.2 mph3.5 kmh 29.80 in1009.1 mb 0.00 in0.0 mm 0.00 in0.0 mm 0.00 in0.0 mm
08:15 AM 78.6°F25.9°C 66.8°F19.3°C 67% 0.7 mph NE1.1 kmh NE 3.8 mph6.1 kmh 29.80 in1009.1 mb 0.00 in0.0 mm 0.00 in0.0 mm 0.00 in0.0 mm
08:30 AM 79.3°F26.3°C 66.6°F19.2°C 65% 1.6 mph N2.6 kmh N 3.8 mph6.1 kmh 29.81 in1009.5 mb 0.00 in0.0 mm 0.00 in0.0 mm 0.00 in0.0 mm
08:45 AM 82.0°F27.8°C 67.3°F19.6°C 61% 1.6 mph NNE2.6 kmh NNE 3.8 mph6.1 kmh 29.81 in1009.5 mb 0.00 in0.0 mm 0.00 in0.0 mm 0.00 in0.0 mm
09:00 AM 84.2°F29.0°C 69.8°F21.0°C 62% Calm Calm 3.1 mph5.0 kmh 29.81 in1009.5 mb 0.00 in0.0 mm 0.00 in0.0 mm 0.00 in0.0 mm
09:15 AM 83.8°F28.8°C 70.4°F21.3°C 64% 0.7 mph NNE1.1 kmh NNE 3.1 mph5.0 kmh 29.81 in1009.5 mb 0.00 in0.0 mm 0.00 in0.0 mm 0.00 in0.0 mm
09:30 AM 84.0°F28.9°C 70.1°F21.2°C 63% 0.7 mph ENE1.1 kmh ENE 3.8 mph6.1 kmh 29.83 in1010.2 mb 0.00 in0.0 mm 0.00 in0.0 mm 0.00 in0.0 mm
09:45 AM 86.2°F30.1°C 69.7°F20.9°C 58% 2.2 mph SE3.5 kmh SE 3.8 mph6.1 kmh 29.83 in1010.2 mb 0.00 in0.0 mm 0.00 in0.0 mm 0.00 in0.0 mm
10:00 AM 85.3°F29.6°C 70.4°F21.3°C 61% 1.6 mph E2.6 kmh E 4.5 mph7.2 kmh 29.82 in1009.8 mb 0.00 in0.0 mm 0.00 in0.0 mm 0.00 in0.0 mm
10:15 AM 83.7°F28.7°C 68.8°F20.4°C 61% 2.2 mph E3.5 kmh E 7.6 mph12.2 kmh 29.82 in1009.8 mb 0.00 in0.0 mm 0.00 in0.0 mm 0.00 in0.0 mm
10:30 AM 84.7°F29.3°C 69.4°F20.8°C 60% 2.2 mph SE3.5 kmh SE 6.0 mph9.7 kmh 29.82 in1009.8 mb 0.00 in0.0 mm 0.00 in0.0 mm 0.00 in0.0 mm
10:45 AM 85.5°F29.7°C 68.5°F20.3°C 57% 3.1 mph ENE5.0 kmh ENE 6.9 mph11.1 kmh 29.83 in1010.2 mb 0.00 in0.0 mm 0.00 in0.0 mm 0.00 in0.0 mm
11:00 AM 87.6°F30.9°C 69.0°F20.6°C 54% 2.2 mph NE3.5 kmh NE 6.0 mph9.7 kmh 29.82 in1009.8 mb 0.00 in0.0 mm 0.00 in0.0 mm 0.00 in0.0 mm
11:15 AM 88.2°F31.2°C 68.9°F20.5°C 53% 1.6 mph SE2.6 kmh SE 4.5 mph7.2 kmh 29.81 in1009.5 mb 0.00 in0.0 mm 0.00 in0.0 mm 0.00 in0.0 mm
11:30 AM 88.7°F31.5°C 68.3°F20.2°C 51% 1.6 mph E2.6 kmh E 6.0 mph9.7 kmh 29.81 in1009.5 mb 0.00 in0.0 mm 0.00 in0.0 mm 0.00 in0.0 mm
11:45 AM 90.0°F32.2°C 68.3°F20.2°C 49% 1.6 mph NE2.6 kmh NE 5.4 mph8.7 kmh 29.80 in1009.1 mb 0.00 in0.0 mm 0.00 in0.0 mm 0.00 in0.0 mm
12:00 PM 91.0°F32.8°C 68.7°F20.4°C 48% 1.6 mph E2.6 kmh E 6.0 mph9.7 kmh 29.80 in1009.1 mb 0.00 in0.0 mm 0.00 in0.0 mm 0.00 in0.0 mm
12:15 PM 90.9°F32.7°C 68.5°F20.3°C 48% 3.1 mph E5.0 kmh E 5.4 mph8.7 kmh 29.80 in1009.1 mb 0.00 in0.0 mm 0.00 in0.0 mm 0.00 in0.0 mm
12:30 PM 91.4°F33.0°C 68.4°F20.2°C 47% 3.8 mph ESE6.1 kmh ESE 6.9 mph11.1 kmh 29.79 in1008.8 mb 0.00 in0.0 mm 0.00 in0.0 mm 0.00 in0.0 mm
12:45 PM 92.3°F33.5°C 69.2°F20.7°C 47% 1.6 mph E2.6 kmh E 6.0 mph9.7 kmh 29.79 in1008.8 mb 0.00 in0.0 mm 0.00 in0.0 mm 0.00 in0.0 mm
01:00 PM 93.7°F34.3°C 69.3°F20.7°C 45% 3.1 mph NE5.0 kmh NE 6.0 mph9.7 kmh 29.78 in1008.5 mb 0.00 in0.0 mm 0.00 in0.0 mm 0.00 in0.0 mm
01:15 PM 93.2°F34.0°C 68.1°F20.1°C 44% 0.7 mph E1.1 kmh E 6.9 mph11.1 kmh 29.78 in1008.5 mb 0.00 in0.0 mm 0.00 in0.0 mm 0.00 in0.0 mm
01:30 PM 93.7°F34.3°C 68.6°F20.3°C 44% 2.2 mph E3.5 kmh E 6.9 mph11.1 kmh 29.78 in1008.5 mb 0.00 in0.0 mm 0.00 in0.0 mm 0.00 in0.0 mm
01:45 PM 94.6°F34.8°C 65.2°F18.4°C 38% 3.1 mph ENE5.0 kmh ENE 6.9 mph11.1 kmh 29.77 in1008.1 mb 0.00 in0.0 mm 0.00 in0.0 mm 0.00 in0.0 mm
02:00 PM 95.4°F35.2°C 65.0°F18.3°C 37% 1.6 mph E2.6 kmh E 5.4 mph8.7 kmh 29.77 in1008.1 mb 0.00 in0.0 mm 0.00 in0.0 mm 0.00 in0.0 mm
02:15 PM 95.9°F35.5°C 64.7°F18.2°C 36% 2.2 mph E3.5 kmh E 5.4 mph8.7 kmh 29.76 in1007.8 mb 0.00 in0.0 mm 0.00 in0.0 mm 0.00 in0.0 mm
02:30 PM 95.4°F35.2°C 65.0°F18.3°C 37% 1.6 mph NE2.6 kmh NE 6.0 mph9.7 kmh 29.75 in1007.5 mb 0.00 in0.0 mm 0.00 in0.0 mm 0.00 in0.0 mm
02:45 PM 95.5°F35.3°C 64.4°F18.0°C 36% 3.8 mph SE6.1 kmh SE 7.6 mph12.2 kmh 29.74 in1007.1 mb 0.00 in0.0 mm 0.00 in0.0 mm 0.00 in0.0 mm
03:00 PM 96.3°F35.7°C 65.8°F18.8°C 37% 1.6 mph E2.6 kmh E 5.4 mph8.7 kmh 29.73 in1006.8 mb 0.00 in0.0 mm 0.00 in0.0 mm 0.00 in0.0 mm
03:15 PM 97.0°F36.1°C 64.9°F18.3°C 35% 3.1 mph NNE5.0 kmh NNE 6.0 mph9.7 kmh 29.73 in1006.8 mb 0.00 in0.0 mm 0.00 in0.0 mm 0.00 in0.0 mm
03:30 PM 95.0°F35.0°C 63.9°F17.7°C 36% 2.2 mph SE3.5 kmh SE 6.9 mph11.1 kmh 29.72 in1006.4 mb 0.00 in0.0 mm 0.00 in0.0 mm 0.00 in0.0 mm
03:45 PM 95.9°F35.5°C 64.7°F18.2°C 36% 3.1 mph ESE5.0 kmh ESE 7.6 mph12.2 kmh 29.72 in1006.4 mb 0.00 in0.0 mm 0.00 in0.0 mm 0.00 in0.0 mm
04:00 PM 96.3°F35.7°C 65.0°F18.3°C 36% 4.5 mph SE7.2 kmh SE 8.3 mph13.4 kmh 29.71 in1006.1 mb 0.00 in0.0 mm 0.00 in0.0 mm 0.00 in0.0 mm
04:15 PM 96.8°F36.0°C 64.7°F18.2°C 35% 5.4 mph ESE8.7 kmh ESE 6.0 mph9.7 kmh 29.70 in1005.8 mb 0.00 in0.0 mm 0.00 in0.0 mm 0.00 in0.0 mm
04:30 PM 98.4°F36.9°C 65.3°F18.5°C 34% 1.6 mph ESE2.6 kmh ESE 4.5 mph7.2 kmh 29.70 in1005.8 mb 0.00 in0.0 mm 0.00 in0.0 mm 0.00 in0.0 mm
04:45 PM 98.8°F37.1°C 63.9°F17.7°C 32% 1.6 mph N2.6 kmh N 4.5 mph7.2 kmh 29.69 in1005.4 mb 0.00 in0.0 mm 0.00 in0.0 mm 0.00 in0.0 mm
05:00 PM 97.3°F36.3°C 64.3°F17.9°C 34% 3.8 mph SSE6.1 kmh SSE 6.0 mph9.7 kmh 29.69 in1005.4 mb 0.00 in0.0 mm 0.00 in0.0 mm 0.00 in0.0 mm
05:15 PM 96.3°F35.7°C 65.0°F18.3°C 36% 0.7 mph SE1.1 kmh SE 7.6 mph12.2 kmh 29.69 in1005.4 mb 0.00 in0.0 mm 0.00 in0.0 mm 0.00 in0.0 mm
05:30 PM 97.9°F36.6°C 65.7°F18.7°C 35% 2.2 mph SSE3.5 kmh SSE 6.0 mph9.7 kmh 29.69 in1005.4 mb 0.00 in0.0 mm 0.00 in0.0 mm 0.00 in0.0 mm
05:45 PM 95.5°F35.3°C 66.0°F18.9°C 38% 5.4 mph SSE8.7 kmh SSE 8.3 mph13.4 kmh 29.68 in1005.1 mb 0.00 in0.0 mm 0.00 in0.0 mm 0.00 in0.0 mm
06:00 PM 94.3°F34.6°C 65.6°F18.7°C 39% 2.2 mph S3.5 kmh S 6.9 mph11.1 kmh 29.68 in1005.1 mb 0.00 in0.0 mm 0.00 in0.0 mm 0.00 in0.0 mm
06:15 PM 92.8°F33.8°C 66.4°F19.1°C 42% 3.1 mph S5.0 kmh S 7.6 mph12.2 kmh 29.68 in1005.1 mb 0.00 in0.0 mm 0.00 in0.0 mm 0.00 in0.0 mm
06:30 PM 91.9°F33.3°C 67.0°F19.4°C 44% 3.8 mph SSW6.1 kmh SSW 6.0 mph9.7 kmh 29.68 in1005.1 mb 0.00 in0.0 mm 0.00 in0.0 mm 0.00 in0.0 mm
06:45 PM 89.6°F32.0°C 66.8°F19.3°C 47% 3.8 mph S6.1 kmh S 6.9 mph11.1 kmh 29.68 in1005.1 mb 0.00 in0.0 mm 0.00 in0.0 mm 0.00 in0.0 mm
07:00 PM 87.1°F30.6°C 67.4°F19.7°C 52% 3.1 mph S5.0 kmh S 6.0 mph9.7 kmh 29.68 in1005.1 mb 0.00 in0.0 mm 0.00 in0.0 mm 0.00 in0.0 mm
07:15 PM 86.2°F30.1°C 66.5°F19.2°C 52% 2.2 mph S3.5 kmh S 4.5 mph7.2 kmh 29.69 in1005.4 mb 0.00 in0.0 mm 0.00 in0.0 mm 0.00 in0.0 mm
07:30 PM 85.8°F29.9°C 67.8°F19.9°C 55% 3.1 mph S5.0 kmh S 6.9 mph11.1 kmh 29.69 in1005.4 mb 0.00 in0.0 mm 0.00 in0.0 mm 0.00 in0.0 mm
07:45 PM 85.3°F29.6°C 67.9°F19.9°C 56% 3.1 mph S5.0 kmh S 5.4 mph8.7 kmh 29.70 in1005.8 mb 0.00 in0.0 mm 0.00 in0.0 mm 0.00 in0.0 mm
08:00 PM 85.1°F29.5°C 68.2°F20.1°C 57% 4.5 mph S7.2 kmh S 6.9 mph11.1 kmh 29.71 in1006.1 mb 0.00 in0.0 mm 0.00 in0.0 mm 0.00 in0.0 mm
08:15 PM 84.6°F29.2°C 67.7°F19.8°C 57% 3.8 mph S6.1 kmh S 6.9 mph11.1 kmh 29.71 in1006.1 mb 0.00 in0.0 mm 0.00 in0.0 mm 0.00 in0.0 mm
08:30 PM 84.7°F29.3°C 66.8°F19.3°C 55% 3.8 mph S6.1 kmh S 6.9 mph11.1 kmh 29.72 in1006.4 mb 0.00 in0.0 mm 0.00 in0.0 mm 0.00 in0.0 mm
08:45 PM 84.7°F29.3°C 66.3°F19.1°C 54% 4.5 mph SSW7.2 kmh SSW 6.0 mph9.7 kmh 29.72 in1006.4 mb 0.00 in0.0 mm 0.00 in0.0 mm 0.00 in0.0 mm
09:00 PM 84.4°F29.1°C 67.0°F19.4°C 56% 5.4 mph S8.7 kmh S 9.2 mph14.8 kmh 29.72 in1006.4 mb 0.00 in0.0 mm 0.00 in0.0 mm 0.00 in0.0 mm
09:15 PM 83.1°F28.4°C 66.9°F19.4°C 58% 6.0 mph SSE9.7 kmh SSE 9.2 mph14.8 kmh 29.72 in1006.4 mb 0.00 in0.0 mm 0.00 in0.0 mm 0.00 in0.0 mm
09:30 PM 82.2°F27.9°C 67.0°F19.4°C 60% 4.5 mph SSE7.2 kmh SSE 10.7 mph17.2 kmh 29.72 in1006.4 mb 0.00 in0.0 mm 0.00 in0.0 mm 0.00 in0.0 mm
09:45 PM 81.5°F27.5°C 66.8°F19.3°C 61% 5.4 mph SSE8.7 kmh SSE 9.8 mph15.8 kmh 29.73 in1006.8 mb 0.00 in0.0 mm 0.00 in0.0 mm 0.00 in0.0 mm
10:00 PM 81.3°F27.4°C 66.2°F19.0°C 60% 5.4 mph SE8.7 kmh SE 9.2 mph14.8 kmh 29.73 in1006.8 mb 0.00 in0.0 mm 0.00 in0.0 mm 0.00 in0.0 mm
10:15 PM 81.1°F27.3°C 66.0°F18.9°C 60% 3.8 mph ESE6.1 kmh ESE 9.2 mph14.8 kmh 29.73 in1006.8 mb 0.00 in0.0 mm 0.00 in0.0 mm 0.00 in0.0 mm
10:30 PM 80.8°F27.1°C 67.1°F19.5°C 63% 3.1 mph ENE5.0 kmh ENE 6.9 mph11.1 kmh 29.73 in1006.8 mb 0.00 in0.0 mm 0.00 in0.0 mm 0.00 in0.0 mm
10:45 PM 80.1°F26.7°C 69.4°F20.8°C 70% 3.1 mph NE5.0 kmh NE 8.3 mph13.4 kmh 29.73 in1006.8 mb 0.00 in0.0 mm 0.00 in0.0 mm 0.00 in0.0 mm
11:00 PM 79.2°F26.2°C 70.2°F21.2°C 74% 3.1 mph ENE5.0 kmh ENE 6.9 mph11.1 kmh 29.74 in1007.1 mb 0.00 in0.0 mm 0.00 in0.0 mm 0.00 in0.0 mm
11:15 PM 78.8°F26.0°C 70.3°F21.3°C 75% 2.2 mph NE3.5 kmh NE 5.4 mph8.7 kmh 29.75 in1007.5 mb 0.00 in0.0 mm 0.00 in0.0 mm 0.00 in0.0 mm
11:30 PM 78.8°F26.0°C 69.5°F20.8°C 73% 2.2 mph NE3.5 kmh NE 5.4 mph8.7 kmh 29.75 in1007.5 mb 0.00 in0.0 mm 0.00 in0.0 mm 0.00 in0.0 mm
11:45 PM 79.3°F26.3°C 69.2°F20.7°C 71% 1.6 mph NE2.6 kmh NE 3.8 mph6.1 kmh 29.75 in1007.5 mb 0.00 in0.0 mm 0.00 in0.0 mm 0.00 in0.0 mm